createdAt,value
2022-10-18T00:00:55.845Z,99023.00
2022-10-18T00:05:58.623Z,99018.00
2022-10-18T00:11:01.538Z,99014.00
2022-10-18T00:16:06.155Z,99035.00
2022-10-18T00:21:14.818Z,99027.00
2022-10-18T00:26:20.290Z,99030.00
2022-10-18T00:31:27.974Z,99033.00
2022-10-18T00:36:34.406Z,99030.00
2022-10-18T00:41:38.266Z,99041.00
2022-10-18T00:46:46.710Z,99034.00
2022-10-18T00:52:03.798Z,99044.00
2022-10-18T00:57:07.784Z,99043.00
2022-10-18T01:02:11.211Z,99028.00
2022-10-18T01:07:38.844Z,99022.00
2022-10-18T01:13:02.649Z,99022.00
2022-10-18T01:18:26.945Z,99025.00
2022-10-18T01:23:41.438Z,99015.00
2022-10-18T01:29:17.750Z,99009.00
2022-10-18T01:34:21.465Z,99018.00
2022-10-18T01:39:38.102Z,99012.00
2022-10-18T01:44:44.203Z,99018.00
2022-10-18T01:49:47.284Z,99021.00
2022-10-18T01:54:50.232Z,99020.00
2022-10-18T02:00:00.316Z,99024.00
2022-10-18T02:05:03.027Z,99009.00
2022-10-18T02:10:21.496Z,99009.00
2022-10-18T02:15:41.356Z,99012.00
2022-10-18T02:20:44.500Z,99016.00
2022-10-18T02:25:47.574Z,99012.00
2022-10-18T02:31:04.806Z,99013.00
2022-10-18T02:36:38.307Z,99019.00
2022-10-18T02:41:41.719Z,99026.00
2022-10-18T02:46:45.436Z,99014.00
2022-10-18T02:51:48.156Z,99027.00
2022-10-18T02:56:51.016Z,99027.00
2022-10-18T03:01:53.799Z,99025.00
2022-10-18T03:06:56.561Z,99015.00
2022-10-18T03:11:59.434Z,99026.00
2022-10-18T03:17:02.131Z,99034.00
2022-10-18T03:22:05.564Z,99028.00
2022-10-18T03:27:08.347Z,99025.00
2022-10-18T03:32:11.081Z,99018.00
2022-10-18T03:37:13.826Z,99024.00
2022-10-18T03:42:16.763Z,99027.00
2022-10-18T03:47:19.591Z,99028.00
2022-10-18T03:52:22.271Z,99030.00
2022-10-18T03:57:25.078Z,99034.00
2022-10-18T04:02:27.937Z,99035.00
2022-10-18T04:12:37.440Z,99042.00
2022-10-18T04:17:40.165Z,99024.00
2022-10-18T04:22:42.905Z,99020.00
2022-10-18T04:27:45.721Z,99021.00
2022-10-18T04:32:48.532Z,99015.00
2022-10-18T04:37:51.602Z,99018.00
2022-10-18T04:42:54.315Z,99011.00
2022-10-18T04:47:57.062Z,99013.00
2022-10-18T04:52:59.755Z,99001.00
2022-10-18T04:58:02.553Z,98991.00
2022-10-18T05:03:05.408Z,98997.00
2022-10-18T05:08:08.601Z,98976.00
2022-10-18T05:13:11.298Z,98961.00
2022-10-18T05:18:14.042Z,98963.00
2022-10-18T05:23:16.768Z,98966.00
2022-10-18T05:28:39.741Z,98974.00
2022-10-18T05:33:42.311Z,98955.00
2022-10-18T05:38:45.678Z,98962.00
2022-10-18T05:43:48.420Z,98943.00
2022-10-18T05:48:51.868Z,98954.00
2022-10-18T05:53:54.945Z,98965.00
2022-10-18T05:58:57.678Z,98952.00
2022-10-18T06:04:00.464Z,98959.00
2022-10-18T06:09:03.924Z,98951.00
2022-10-18T06:14:07.721Z,98957.00
2022-10-18T06:19:10.511Z,98953.00
2022-10-18T06:24:13.278Z,98962.00
2022-10-18T06:29:16.029Z,98956.00
2022-10-18T06:34:18.806Z,98969.00
2022-10-18T06:39:21.737Z,98959.00
2022-10-18T06:44:24.513Z,98951.00
2022-10-18T06:49:27.316Z,98962.00
2022-10-18T06:54:30.047Z,98949.00
2022-10-18T06:59:35.570Z,98960.00
2022-10-18T07:04:38.282Z,98948.00
2022-10-18T07:09:41.118Z,98955.00
2022-10-18T07:14:44.219Z,98966.00
2022-10-18T07:19:46.907Z,98964.00
2022-10-18T07:24:49.751Z,98970.00
2022-10-18T07:29:52.554Z,98949.00
2022-10-18T07:34:55.273Z,98937.00
2022-10-18T07:39:58.016Z,98931.00
2022-10-18T07:45:00.714Z,98917.00
2022-10-18T07:50:03.720Z,98914.00
2022-10-18T07:55:06.663Z,98912.00
2022-10-18T08:00:09.972Z,98909.00
2022-10-18T08:05:14.218Z,98895.00
2022-10-18T08:10:16.973Z,98902.00
2022-10-18T08:15:21.899Z,98894.00
2022-10-18T08:20:30.986Z,98892.00
2022-10-18T08:25:34.108Z,98873.00
2022-10-18T08:30:37.194Z,98874.00
2022-10-18T08:35:39.876Z,98860.00
2022-10-18T08:40:46.121Z,98851.00
2022-10-18T08:45:51.248Z,98862.00
2022-10-18T08:50:56.429Z,98849.00
2022-10-18T08:56:05.227Z,98860.00
2022-10-18T09:01:36.463Z,98852.00
2022-10-18T09:07:04.353Z,98845.00
2022-10-18T09:12:23.547Z,98850.00
2022-10-18T09:17:53.699Z,98848.00
2022-10-18T09:23:21.166Z,98855.00
2022-10-18T09:28:54.253Z,98853.00
2022-10-18T09:34:02.924Z,98845.00
2022-10-18T09:39:11.540Z,98871.00
2022-10-18T09:44:32.792Z,98869.00
2022-10-18T09:49:44.652Z,98910.00
2022-10-18T09:54:59.295Z,98935.00
2022-10-18T10:00:04.785Z,98945.00
2022-10-18T10:05:14.383Z,98957.00
2022-10-18T10:10:29.278Z,98964.00
2022-10-18T10:15:36.951Z,98974.00
2022-10-18T10:20:53.777Z,98971.00
2022-10-18T10:25:59.827Z,98971.00
2022-10-18T10:31:30.231Z,98985.00
2022-10-18T10:36:34.329Z,98983.00
2022-10-18T10:41:37.976Z,98982.00
2022-10-18T10:46:40.761Z,98984.00
2022-10-18T10:51:44.197Z,98983.00
2022-10-18T10:57:12.549Z,98972.00
2022-10-18T11:02:18.222Z,98982.00
2022-10-18T11:07:42.673Z,98981.00
2022-10-18T11:13:01.615Z,98977.00
2022-10-18T11:18:29.476Z,98986.00
2022-10-18T11:23:34.226Z,98993.00
2022-10-18T11:28:36.991Z,98994.00
2022-10-18T11:34:15.548Z,98993.00
2022-10-18T11:39:47.751Z,98984.00
2022-10-18T11:45:15.248Z,98994.00
2022-10-18T11:50:55.808Z,98992.00
2022-10-18T11:56:04.673Z,98978.00
2022-10-18T12:01:39.424Z,98988.00
2022-10-18T12:06:44.469Z,98991.00
2022-10-18T12:11:55.693Z,99005.00
2022-10-18T12:17:35.823Z,99007.00
2022-10-18T12:22:35.413Z,99007.00
2022-10-18T12:27:48.063Z,99003.00
2022-10-18T12:33:09.938Z,99003.00
2022-10-18T12:38:27.055Z,99002.00
2022-10-18T12:43:36.690Z,98994.00
2022-10-18T12:48:43.189Z,99005.00
2022-10-18T12:53:49.676Z,99002.00
2022-10-18T12:58:52.388Z,99008.00
2022-10-18T13:03:58.716Z,99018.00
2022-10-18T13:09:18.546Z,99011.00
2022-10-18T13:14:48.233Z,98997.00
2022-10-18T13:20:28.517Z,98992.00
2022-10-18T13:25:46.415Z,98986.00
2022-10-18T13:31:18.920Z,98982.00
2022-10-18T13:36:25.379Z,98983.00
2022-10-18T13:41:34.484Z,98988.00
2022-10-18T13:46:49.624Z,99002.00
2022-10-18T13:52:09.048Z,98997.00
2022-10-18T13:57:29.803Z,98997.00
2022-10-18T14:02:52.998Z,99002.00
2022-10-18T14:14:03.115Z,99017.00
2022-10-18T14:19:27.709Z,99013.00
2022-10-18T14:24:31.334Z,99023.00
2022-10-18T14:29:34.082Z,99020.00
2022-10-18T14:34:37.149Z,99035.00
2022-10-18T14:39:39.884Z,99034.00
2022-10-18T14:44:47.646Z,99033.00
2022-10-18T14:49:54.375Z,99032.00
2022-10-18T14:54:58.765Z,99036.00
2022-10-18T15:00:05.839Z,99031.00
2022-10-18T15:05:22.324Z,99048.00
2022-10-18T15:10:31.114Z,99049.00
2022-10-18T15:15:34.941Z,99052.00
2022-10-18T15:20:43.017Z,99049.00
2022-10-18T15:25:46.035Z,99053.00
2022-10-18T15:30:48.936Z,99053.00
2022-10-18T15:35:53.201Z,99051.00
2022-10-18T15:40:56.486Z,99055.00
2022-10-18T15:46:06.716Z,99054.00
2022-10-18T15:51:47.528Z,99068.00
2022-10-18T15:56:50.278Z,99060.00
2022-10-18T16:01:54.038Z,99059.00
2022-10-18T16:06:58.041Z,99064.00
2022-10-18T16:12:00.784Z,99066.00
2022-10-18T16:17:06.823Z,99079.00
2022-10-18T16:27:16.639Z,99079.00
2022-10-18T16:32:19.343Z,99077.00
2022-10-18T16:37:22.006Z,99080.00
2022-10-18T16:42:24.823Z,99085.00
2022-10-18T16:47:27.547Z,99082.00
2022-10-18T16:52:30.346Z,99082.00
2022-10-18T16:57:33.248Z,99083.00
2022-10-18T17:02:35.941Z,99096.00
2022-10-18T17:07:38.706Z,99088.00
2022-10-18T17:12:41.783Z,99104.00
2022-10-18T17:17:45.085Z,99097.00
2022-10-18T17:22:48.391Z,99107.00
2022-10-18T17:27:51.070Z,99109.00
2022-10-18T17:32:55.367Z,99112.00
2022-10-18T17:37:58.614Z,99118.00
2022-10-18T17:43:01.320Z,99124.00
2022-10-18T17:48:04.118Z,99118.00
2022-10-18T17:53:06.841Z,99122.00
2022-10-18T17:58:10.235Z,99128.00
2022-10-18T18:03:13.665Z,99126.00
2022-10-18T18:08:16.544Z,99126.00
2022-10-18T18:13:19.782Z,99125.00
2022-10-18T18:18:22.665Z,99120.00
2022-10-18T18:23:25.749Z,99117.00
2022-10-18T18:28:28.488Z,99114.00
2022-10-18T18:33:33.963Z,99116.00
2022-10-18T18:38:39.032Z,99113.00
2022-10-18T18:43:44.413Z,99119.00
2022-10-18T18:48:47.541Z,99115.00
2022-10-18T18:53:50.651Z,99101.00
2022-10-18T18:58:53.839Z,99109.00
2022-10-18T19:03:57.844Z,99102.00
2022-10-18T19:09:04.017Z,99107.00
2022-10-18T19:14:07.976Z,99108.00
2022-10-18T19:19:20.381Z,99094.00
2022-10-18T19:24:25.251Z,99103.00
2022-10-18T19:29:31.479Z,99104.00
2022-10-18T19:34:34.800Z,99103.00
2022-10-18T19:39:37.750Z,99099.00
2022-10-18T19:44:41.088Z,99109.00
2022-10-18T19:49:43.930Z,99123.00
2022-10-18T19:54:48.578Z,99131.00
2022-10-18T19:59:56.027Z,99128.00
2022-10-18T20:04:59.496Z,99133.00
2022-10-18T20:10:03.441Z,99134.00
2022-10-18T20:15:08.943Z,99140.00
2022-10-18T20:20:12.063Z,99132.00
2022-10-18T20:25:14.764Z,99137.00
2022-10-18T20:30:17.573Z,99141.00
2022-10-18T20:35:20.898Z,99150.00
2022-10-18T20:40:23.650Z,99143.00
2022-10-18T20:45:26.347Z,99140.00
2022-10-18T20:50:29.054Z,99142.00
2022-10-18T20:55:31.819Z,99134.00
2022-10-18T21:00:35.184Z,99112.00
2022-10-18T21:05:55.339Z,99121.00
2022-10-18T21:11:25.587Z,99127.00
2022-10-18T21:16:53.259Z,99141.00
2022-10-18T21:22:19.038Z,99135.00
2022-10-18T21:27:38.894Z,99132.00
2022-10-18T21:32:49.814Z,99127.00
2022-10-18T21:38:05.037Z,99129.00
2022-10-18T21:43:22.826Z,99127.00
2022-10-18T21:48:32.481Z,99112.00
2022-10-18T21:53:54.769Z,99115.00
2022-10-18T21:59:06.386Z,99132.00
2022-10-18T22:04:48.131Z,99126.00
2022-10-18T22:10:35.669Z,99123.00
2022-10-18T22:15:40.873Z,99116.00
2022-10-18T22:20:43.735Z,99115.00
2022-10-18T22:25:46.483Z,99117.00
2022-10-18T22:31:05.288Z,99117.00
2022-10-18T22:36:31.677Z,99130.00
2022-10-18T22:41:56.346Z,99117.00
2022-10-18T22:47:12.065Z,99125.00
2022-10-18T22:52:33.251Z,99124.00
2022-10-18T22:57:53.953Z,99114.00
2022-10-18T23:03:14.054Z,99112.00
2022-10-18T23:08:23.441Z,99122.00
2022-10-18T23:13:44.774Z,99119.00
2022-10-18T23:18:59.308Z,99125.00
2022-10-18T23:24:08.424Z,99122.00
2022-10-18T23:29:15.404Z,99132.00
2022-10-18T23:34:18.316Z,99130.00
2022-10-18T23:39:23.608Z,99130.00
2022-10-18T23:44:26.532Z,99129.00
2022-10-18T23:49:29.237Z,99135.00
2022-10-18T23:54:31.981Z,99139.00
2022-10-18T23:59:34.685Z,99137.00
